sensor_id;sensor_type;location;lat;lon;timestamp;P1;durP1;ratioP1;P2;durP2;ratioP2
69627;SDS011;56850;51.984;5.088;2024-02-26T00:01:50;4.43;;;3.00;;
69627;SDS011;56850;51.984;5.088;2024-02-26T00:04:18;3.95;;;2.80;;
69627;SDS011;56850;51.984;5.088;2024-02-26T00:06:45;4.88;;;3.10;;
69627;SDS011;56850;51.984;5.088;2024-02-26T00:09:12;5.72;;;2.80;;
69627;SDS011;56850;51.984;5.088;2024-02-26T00:11:39;3.22;;;2.90;;
69627;SDS011;56850;51.984;5.088;2024-02-26T00:14:06;2.80;;;2.50;;
69627;SDS011;56850;51.984;5.088;2024-02-26T00:16:33;3.45;;;2.85;;
69627;SDS011;56850;51.984;5.088;2024-02-26T00:19:00;4.30;;;3.03;;
69627;SDS011;56850;51.984;5.088;2024-02-26T00:21:27;4.35;;;3.42;;
69627;SDS011;56850;51.984;5.088;2024-02-26T00:23:54;3.40;;;3.10;;
69627;SDS011;56850;51.984;5.088;2024-02-26T00:26:21;3.33;;;3.00;;
69627;SDS011;56850;51.984;5.088;2024-02-26T00:28:48;3.17;;;2.88;;
69627;SDS011;56850;51.984;5.088;2024-02-26T00:31:18;4.45;;;3.15;;
69627;SDS011;56850;51.984;5.088;2024-02-26T00:33:45;3.25;;;2.83;;
69627;SDS011;56850;51.984;5.088;2024-02-26T00:36:12;4.03;;;3.42;;
69627;SDS011;56850;51.984;5.088;2024-02-26T00:38:39;3.97;;;3.10;;
69627;SDS011;56850;51.984;5.088;2024-02-26T00:41:07;5.30;;;3.22;;
69627;SDS011;56850;51.984;5.088;2024-02-26T00:43:34;5.88;;;2.92;;
69627;SDS011;56850;51.984;5.088;2024-02-26T00:46:00;4.57;;;2.85;;
69627;SDS011;56850;51.984;5.088;2024-02-26T00:48:28;5.47;;;3.20;;
69627;SDS011;56850;51.984;5.088;2024-02-26T00:50:55;3.33;;;2.97;;
69627;SDS011;56850;51.984;5.088;2024-02-26T00:53:22;4.03;;;2.88;;
69627;SDS011;56850;51.984;5.088;2024-02-26T00:55:51;3.58;;;3.03;;
69627;SDS011;56850;51.984;5.088;2024-02-26T00:58:18;4.20;;;3.80;;
69627;SDS011;56850;51.984;5.088;2024-02-26T01:00:45;8.48;;;3.38;;
69627;SDS011;56850;51.984;5.088;2024-02-26T01:03:12;5.90;;;3.20;;
69627;SDS011;56850;51.984;5.088;2024-02-26T01:05:39;4.80;;;3.10;;
69627;SDS011;56850;51.984;5.088;2024-02-26T01:08:06;4.70;;;3.60;;
69627;SDS011;56850;51.984;5.088;2024-02-26T01:10:33;5.22;;;3.17;;
69627;SDS011;56850;51.984;5.088;2024-02-26T01:13:00;4.00;;;3.53;;
69627;SDS011;56850;51.984;5.088;2024-02-26T01:15:28;3.63;;;2.80;;
69627;SDS011;56850;51.984;5.088;2024-02-26T01:17:55;3.75;;;3.35;;
69627;SDS011;56850;51.984;5.088;2024-02-26T01:20:22;4.28;;;3.60;;
69627;SDS011;56850;51.984;5.088;2024-02-26T01:22:48;4.50;;;3.17;;
69627;SDS011;56850;51.984;5.088;2024-02-26T01:25:15;4.07;;;3.35;;
69627;SDS011;56850;51.984;5.088;2024-02-26T01:27:42;5.10;;;3.30;;
69627;SDS011;56850;51.984;5.088;2024-02-26T01:30:10;3.53;;;3.00;;
69627;SDS011;56850;51.984;5.088;2024-02-26T01:32:37;4.30;;;3.00;;
69627;SDS011;56850;51.984;5.088;2024-02-26T01:35:04;4.38;;;3.10;;
69627;SDS011;56850;51.984;5.088;2024-02-26T01:37:36;3.88;;;3.30;;
69627;SDS011;56850;51.984;5.088;2024-02-26T01:40:03;4.57;;;3.53;;
69627;SDS011;56850;51.984;5.088;2024-02-26T01:42:33;5.30;;;3.50;;
69627;SDS011;56850;51.984;5.088;2024-02-26T01:45:00;4.10;;;3.05;;
69627;SDS011;56850;51.984;5.088;2024-02-26T01:47:27;6.38;;;3.08;;
69627;SDS011;56850;51.984;5.088;2024-02-26T01:49:55;5.30;;;3.40;;
69627;SDS011;56850;51.984;5.088;2024-02-26T01:52:22;4.90;;;3.57;;
69627;SDS011;56850;51.984;5.088;2024-02-26T01:54:49;4.93;;;3.60;;
69627;SDS011;56850;51.984;5.088;2024-02-26T01:57:16;3.95;;;3.53;;
69627;SDS011;56850;51.984;5.088;2024-02-26T01:59:44;4.82;;;3.22;;
69627;SDS011;56850;51.984;5.088;2024-02-26T02:02:11;5.20;;;3.50;;
69627;SDS011;56850;51.984;5.088;2024-02-26T02:04:41;5.07;;;3.00;;
69627;SDS011;56850;51.984;5.088;2024-02-26T02:07:08;3.80;;;3.22;;
69627;SDS011;56850;51.984;5.088;2024-02-26T02:09:35;3.72;;;3.35;;
69627;SDS011;56850;51.984;5.088;2024-02-26T02:12:02;3.55;;;3.25;;
69627;SDS011;56850;51.984;5.088;2024-02-26T02:14:30;3.67;;;3.38;;
69627;SDS011;56850;51.984;5.088;2024-02-26T02:16:57;4.33;;;3.20;;
69627;SDS011;56850;51.984;5.088;2024-02-26T02:19:24;6.10;;;3.50;;
69627;SDS011;56850;51.984;5.088;2024-02-26T02:21:51;4.00;;;3.60;;
69627;SDS011;56850;51.984;5.088;2024-02-26T02:24:18;3.50;;;3.13;;
69627;SDS011;56850;51.984;5.088;2024-02-26T02:26:45;4.25;;;3.67;;
69627;SDS011;56850;51.984;5.088;2024-02-26T02:29:12;4.37;;;3.43;;
69627;SDS011;56850;51.984;5.088;2024-02-26T02:31:39;4.30;;;3.35;;
69627;SDS011;56850;51.984;5.088;2024-02-26T02:34:07;4.25;;;3.53;;
69627;SDS011;56850;51.984;5.088;2024-02-26T02:36:47;3.60;;;3.30;;
69627;SDS011;56850;51.984;5.088;2024-02-26T02:39:15;5.93;;;3.85;;
69627;SDS011;56850;51.984;5.088;2024-02-26T02:41:42;4.67;;;3.70;;
69627;SDS011;56850;51.984;5.088;2024-02-26T02:44:09;4.47;;;3.50;;
69627;SDS011;56850;51.984;5.088;2024-02-26T02:46:36;4.55;;;3.60;;
69627;SDS011;56850;51.984;5.088;2024-02-26T02:49:03;4.10;;;3.40;;
69627;SDS011;56850;51.984;5.088;2024-02-26T02:51:30;4.45;;;3.83;;
69627;SDS011;56850;51.984;5.088;2024-02-26T02:54:00;4.93;;;3.70;;
69627;SDS011;56850;51.984;5.088;2024-02-26T02:56:27;4.10;;;3.70;;
69627;SDS011;56850;51.984;5.088;2024-02-26T02:58:54;4.88;;;4.10;;
69627;SDS011;56850;51.984;5.088;2024-02-26T03:01:20;4.60;;;3.67;;
69627;SDS011;56850;51.984;5.088;2024-02-26T03:03:47;4.03;;;3.53;;
69627;SDS011;56850;51.984;5.088;2024-02-26T03:06:14;3.77;;;3.33;;
69627;SDS011;56850;51.984;5.088;2024-02-26T03:08:41;4.63;;;3.78;;
69627;SDS011;56850;51.984;5.088;2024-02-26T03:11:12;4.40;;;4.00;;
69627;SDS011;56850;51.984;5.088;2024-02-26T03:13:40;4.85;;;4.18;;
69627;SDS011;56850;51.984;5.088;2024-02-26T03:16:07;4.75;;;3.92;;
69627;SDS011;56850;51.984;5.088;2024-02-26T03:18:35;5.03;;;3.43;;
69627;SDS011;56850;51.984;5.088;2024-02-26T03:21:02;4.43;;;3.78;;
69627;SDS011;56850;51.984;5.088;2024-02-26T03:23:29;5.35;;;3.72;;
69627;SDS011;56850;51.984;5.088;2024-02-26T03:25:58;3.92;;;3.53;;
69627;SDS011;56850;51.984;5.088;2024-02-26T03:28:27;4.75;;;3.95;;
69627;SDS011;56850;51.984;5.088;2024-02-26T03:30:54;4.70;;;3.90;;
69627;SDS011;56850;51.984;5.088;2024-02-26T03:33:21;5.43;;;4.00;;
69627;SDS011;56850;51.984;5.088;2024-02-26T03:35:48;5.22;;;4.72;;
69627;SDS011;56850;51.984;5.088;2024-02-26T03:38:15;5.35;;;3.95;;
69627;SDS011;56850;51.984;5.088;2024-02-26T03:40:42;7.32;;;4.57;;
69627;SDS011;56850;51.984;5.088;2024-02-26T03:43:09;4.17;;;3.77;;
69627;SDS011;56850;51.984;5.088;2024-02-26T03:45:36;4.30;;;3.90;;
69627;SDS011;56850;51.984;5.088;2024-02-26T03:48:03;5.55;;;4.25;;
69627;SDS011;56850;51.984;5.088;2024-02-26T03:50:30;6.93;;;4.22;;
69627;SDS011;56850;51.984;5.088;2024-02-26T03:52:57;7.78;;;5.07;;
69627;SDS011;56850;51.984;5.088;2024-02-26T03:55:24;5.20;;;4.70;;
69627;SDS011;56850;51.984;5.088;2024-02-26T03:57:51;5.63;;;4.28;;
69627;SDS011;56850;51.984;5.088;2024-02-26T04:00:18;5.00;;;4.50;;
69627;SDS011;56850;51.984;5.088;2024-02-26T04:02:48;4.55;;;4.15;;
69627;SDS011;56850;51.984;5.088;2024-02-26T04:05:15;5.72;;;4.35;;
69627;SDS011;56850;51.984;5.088;2024-02-26T04:07:42;6.10;;;4.53;;
69627;SDS011;56850;51.984;5.088;2024-02-26T04:10:10;4.93;;;4.35;;
69627;SDS011;56850;51.984;5.088;2024-02-26T04:12:40;6.72;;;4.50;;
69627;SDS011;56850;51.984;5.088;2024-02-26T04:15:08;5.07;;;4.35;;
69627;SDS011;56850;51.984;5.088;2024-02-26T04:17:36;5.18;;;4.68;;
69627;SDS011;56850;51.984;5.088;2024-02-26T04:20:03;6.63;;;4.30;;
69627;SDS011;56850;51.984;5.088;2024-02-26T04:22:34;8.00;;;4.30;;
69627;SDS011;56850;51.984;5.088;2024-02-26T04:25:00;5.53;;;4.53;;
69627;SDS011;56850;51.984;5.088;2024-02-26T04:27:29;5.00;;;4.50;;
69627;SDS011;56850;51.984;5.088;2024-02-26T04:29:56;5.63;;;4.60;;
69627;SDS011;56850;51.984;5.088;2024-02-26T04:32:23;6.80;;;5.10;;
69627;SDS011;56850;51.984;5.088;2024-02-26T04:34:50;5.20;;;4.70;;
69627;SDS011;56850;51.984;5.088;2024-02-26T04:37:17;5.50;;;5.00;;
69627;SDS011;56850;51.984;5.088;2024-02-26T04:39:44;6.88;;;4.63;;
69627;SDS011;56850;51.984;5.088;2024-02-26T04:42:16;5.55;;;4.65;;
69627;SDS011;56850;51.984;5.088;2024-02-26T04:44:43;5.70;;;4.80;;
69627;SDS011;56850;51.984;5.088;2024-02-26T04:47:10;5.18;;;4.22;;
69627;SDS011;56850;51.984;5.088;2024-02-26T04:49:37;5.72;;;4.80;;
69627;SDS011;56850;51.984;5.088;2024-02-26T04:52:04;6.05;;;4.70;;
69627;SDS011;56850;51.984;5.088;2024-02-26T04:54:31;6.38;;;5.20;;
69627;SDS011;56850;51.984;5.088;2024-02-26T04:56:58;6.73;;;5.03;;
69627;SDS011;56850;51.984;5.088;2024-02-26T04:59:25;5.18;;;4.68;;
69627;SDS011;56850;51.984;5.088;2024-02-26T05:01:52;5.70;;;5.13;;
69627;SDS011;56850;51.984;5.088;2024-02-26T05:04:19;5.40;;;4.40;;
69627;SDS011;56850;51.984;5.088;2024-02-26T05:06:46;5.40;;;4.80;;
69627;SDS011;56850;51.984;5.088;2024-02-26T05:09:13;5.20;;;4.70;;
69627;SDS011;56850;51.984;5.088;2024-02-26T05:11:40;5.45;;;4.85;;
69627;SDS011;56850;51.984;5.088;2024-02-26T05:14:09;6.43;;;5.10;;
69627;SDS011;56850;51.984;5.088;2024-02-26T05:16:36;8.63;;;4.95;;
69627;SDS011;56850;51.984;5.088;2024-02-26T05:19:02;6.90;;;5.03;;
69627;SDS011;56850;51.984;5.088;2024-02-26T05:21:29;5.63;;;4.67;;
69627;SDS011;56850;51.984;5.088;2024-02-26T05:23:56;5.50;;;4.90;;
69627;SDS011;56850;51.984;5.088;2024-02-26T05:26:23;5.82;;;4.93;;
69627;SDS011;56850;51.984;5.088;2024-02-26T05:28:50;5.30;;;4.80;;
69627;SDS011;56850;51.984;5.088;2024-02-26T05:31:17;6.20;;;5.00;;
69627;SDS011;56850;51.984;5.088;2024-02-26T05:33:45;6.13;;;4.43;;
69627;SDS011;56850;51.984;5.088;2024-02-26T05:36:17;5.43;;;4.93;;
69627;SDS011;56850;51.984;5.088;2024-02-26T05:38:45;5.40;;;4.82;;
69627;SDS011;56850;51.984;5.088;2024-02-26T05:41:14;5.57;;;4.65;;
69627;SDS011;56850;51.984;5.088;2024-02-26T05:43:49;7.65;;;5.15;;
69627;SDS011;56850;51.984;5.088;2024-02-26T05:46:20;5.67;;;5.00;;
69627;SDS011;56850;51.984;5.088;2024-02-26T05:48:47;7.07;;;5.03;;
69627;SDS011;56850;51.984;5.088;2024-02-26T05:51:20;6.45;;;5.03;;
69627;SDS011;56850;51.984;5.088;2024-02-26T05:53:47;8.05;;;5.32;;
69627;SDS011;56850;51.984;5.088;2024-02-26T05:56:20;6.97;;;5.05;;
69627;SDS011;56850;51.984;5.088;2024-02-26T05:58:48;6.67;;;5.03;;
69627;SDS011;56850;51.984;5.088;2024-02-26T06:01:16;6.05;;;4.70;;
69627;SDS011;56850;51.984;5.088;2024-02-26T06:03:44;7.65;;;4.93;;
69627;SDS011;56850;51.984;5.088;2024-02-26T06:06:11;7.47;;;5.70;;
69627;SDS011;56850;51.984;5.088;2024-02-26T06:08:38;6.20;;;5.60;;
69627;SDS011;56850;51.984;5.088;2024-02-26T06:11:06;7.33;;;5.07;;
69627;SDS011;56850;51.984;5.088;2024-02-26T06:13:35;5.95;;;5.25;;
69627;SDS011;56850;51.984;5.088;2024-02-26T06:16:02;8.82;;;5.63;;
69627;SDS011;56850;51.984;5.088;2024-02-26T06:18:29;6.30;;;4.93;;
69627;SDS011;56850;51.984;5.088;2024-02-26T06:20:56;7.25;;;5.50;;
69627;SDS011;56850;51.984;5.088;2024-02-26T06:23:23;5.83;;;5.00;;
69627;SDS011;56850;51.984;5.088;2024-02-26T06:25:50;5.95;;;5.25;;
69627;SDS011;56850;51.984;5.088;2024-02-26T06:28:17;6.22;;;5.30;;
69627;SDS011;56850;51.984;5.088;2024-02-26T06:30:45;6.57;;;5.20;;
69627;SDS011;56850;51.984;5.088;2024-02-26T06:33:12;6.50;;;5.32;;
69627;SDS011;56850;51.984;5.088;2024-02-26T06:35:40;8.17;;;5.20;;
69627;SDS011;56850;51.984;5.088;2024-02-26T06:38:08;6.22;;;5.40;;
69627;SDS011;56850;51.984;5.088;2024-02-26T06:40:36;7.63;;;5.63;;
69627;SDS011;56850;51.984;5.088;2024-02-26T06:43:03;5.30;;;4.75;;
69627;SDS011;56850;51.984;5.088;2024-02-26T06:45:29;7.03;;;5.50;;
69627;SDS011;56850;51.984;5.088;2024-02-26T06:47:57;7.93;;;5.43;;
69627;SDS011;56850;51.984;5.088;2024-02-26T06:50:24;6.70;;;6.00;;
69627;SDS011;56850;51.984;5.088;2024-02-26T06:52:51;6.45;;;5.40;;
69627;SDS011;56850;51.984;5.088;2024-02-26T06:55:18;6.53;;;5.35;;
69627;SDS011;56850;51.984;5.088;2024-02-26T06:57:45;7.40;;;5.50;;
69627;SDS011;56850;51.984;5.088;2024-02-26T07:00:12;7.80;;;6.43;;
69627;SDS011;56850;51.984;5.088;2024-02-26T07:02:42;7.40;;;5.82;;
69627;SDS011;56850;51.984;5.088;2024-02-26T07:05:09;6.75;;;5.97;;
69627;SDS011;56850;51.984;5.088;2024-02-26T07:07:37;7.85;;;5.32;;
69627;SDS011;56850;51.984;5.088;2024-02-26T07:10:04;9.50;;;6.07;;
69627;SDS011;56850;51.984;5.088;2024-02-26T07:12:32;6.73;;;5.50;;
69627;SDS011;56850;51.984;5.088;2024-02-26T07:14:59;7.55;;;5.80;;
69627;SDS011;56850;51.984;5.088;2024-02-26T07:17:27;8.02;;;6.50;;
69627;SDS011;56850;51.984;5.088;2024-02-26T07:19:54;7.03;;;5.70;;
69627;SDS011;56850;51.984;5.088;2024-02-26T07:22:21;8.05;;;6.53;;
69627;SDS011;56850;51.984;5.088;2024-02-26T07:24:48;10.20;;;6.63;;
69627;SDS011;56850;51.984;5.088;2024-02-26T07:27:15;9.57;;;6.65;;
69627;SDS011;56850;51.984;5.088;2024-02-26T07:29:44;8.60;;;6.78;;
69627;SDS011;56850;51.984;5.088;2024-02-26T07:32:11;9.70;;;6.93;;
69627;SDS011;56850;51.984;5.088;2024-02-26T07:34:38;9.07;;;6.55;;
69627;SDS011;56850;51.984;5.088;2024-02-26T07:37:08;9.37;;;6.93;;
69627;SDS011;56850;51.984;5.088;2024-02-26T07:39:35;8.80;;;7.18;;
69627;SDS011;56850;51.984;5.088;2024-02-26T07:42:03;11.70;;;7.65;;
69627;SDS011;56850;51.984;5.088;2024-02-26T07:44:30;8.75;;;7.35;;
69627;SDS011;56850;51.984;5.088;2024-02-26T07:46:57;11.27;;;8.32;;
69627;SDS011;56850;51.984;5.088;2024-02-26T07:49:24;9.27;;;7.17;;
69627;SDS011;56850;51.984;5.088;2024-02-26T07:51:51;11.75;;;8.15;;
69627;SDS011;56850;51.984;5.088;2024-02-26T07:54:18;10.63;;;7.82;;
69627;SDS011;56850;51.984;5.088;2024-02-26T07:56:45;12.63;;;8.15;;
69627;SDS011;56850;51.984;5.088;2024-02-26T07:59:13;11.43;;;8.32;;
69627;SDS011;56850;51.984;5.088;2024-02-26T08:01:41;12.20;;;8.80;;
69627;SDS011;56850;51.984;5.088;2024-02-26T08:04:11;13.95;;;8.95;;
69627;SDS011;56850;51.984;5.088;2024-02-26T08:06:38;13.18;;;8.80;;
69627;SDS011;56850;51.984;5.088;2024-02-26T08:09:05;12.35;;;9.05;;
69627;SDS011;56850;51.984;5.088;2024-02-26T08:11:33;14.63;;;9.68;;
69627;SDS011;56850;51.984;5.088;2024-02-26T08:14:00;13.77;;;9.57;;
69627;SDS011;56850;51.984;5.088;2024-02-26T08:16:27;12.13;;;9.48;;
69627;SDS011;56850;51.984;5.088;2024-02-26T08:18:54;12.68;;;10.18;;
69627;SDS011;56850;51.984;5.088;2024-02-26T08:21:22;15.10;;;10.55;;
69627;SDS011;56850;51.984;5.088;2024-02-26T08:23:49;15.02;;;10.38;;
69627;SDS011;56850;51.984;5.088;2024-02-26T08:26:16;14.77;;;10.77;;
69627;SDS011;56850;51.984;5.088;2024-02-26T08:28:43;14.30;;;10.90;;
69627;SDS011;56850;51.984;5.088;2024-02-26T08:31:10;14.95;;;10.63;;
69627;SDS011;56850;51.984;5.088;2024-02-26T08:33:37;16.02;;;11.23;;
69627;SDS011;56850;51.984;5.088;2024-02-26T08:36:05;14.55;;;11.50;;
69627;SDS011;56850;51.984;5.088;2024-02-26T08:38:32;15.83;;;10.63;;
69627;SDS011;56850;51.984;5.088;2024-02-26T08:41:01;14.18;;;10.68;;
69627;SDS011;56850;51.984;5.088;2024-02-26T08:43:31;17.70;;;11.48;;
69627;SDS011;56850;51.984;5.088;2024-02-26T08:45:58;14.68;;;10.68;;
69627;SDS011;56850;51.984;5.088;2024-02-26T08:48:25;15.95;;;11.13;;
69627;SDS011;56850;51.984;5.088;2024-02-26T08:50:52;14.93;;;10.67;;
69627;SDS011;56850;51.984;5.088;2024-02-26T08:53:19;15.20;;;11.18;;
69627;SDS011;56850;51.984;5.088;2024-02-26T08:55:56;14.32;;;10.82;;
69627;SDS011;56850;51.984;5.088;2024-02-26T08:58:23;14.68;;;10.27;;
69627;SDS011;56850;51.984;5.088;2024-02-26T09:00:50;12.40;;;10.27;;
69627;SDS011;56850;51.984;5.088;2024-02-26T09:03:17;13.20;;;9.67;;
69627;SDS011;56850;51.984;5.088;2024-02-26T09:05:47;14.80;;;10.23;;
69627;SDS011;56850;51.984;5.088;2024-02-26T09:08:14;12.98;;;10.35;;
69627;SDS011;56850;51.984;5.088;2024-02-26T09:10:41;13.57;;;10.52;;
69627;SDS011;56850;51.984;5.088;2024-02-26T09:13:08;13.90;;;9.38;;
69627;SDS011;56850;51.984;5.088;2024-02-26T09:15:35;13.80;;;9.83;;
69627;SDS011;56850;51.984;5.088;2024-02-26T09:18:02;12.35;;;9.88;;
69627;SDS011;56850;51.984;5.088;2024-02-26T09:20:29;12.73;;;9.50;;
69627;SDS011;56850;51.984;5.088;2024-02-26T09:22:57;13.30;;;9.55;;
69627;SDS011;56850;51.984;5.088;2024-02-26T09:25:23;11.02;;;8.98;;
69627;SDS011;56850;51.984;5.088;2024-02-26T09:27:50;11.80;;;8.37;;
69627;SDS011;56850;51.984;5.088;2024-02-26T09:30:18;12.15;;;8.82;;
69627;SDS011;56850;51.984;5.088;2024-02-26T09:32:46;10.82;;;8.85;;
69627;SDS011;56850;51.984;5.088;2024-02-26T09:35:14;10.75;;;8.30;;
69627;SDS011;56850;51.984;5.088;2024-02-26T09:37:41;11.18;;;8.13;;
69627;SDS011;56850;51.984;5.088;2024-02-26T09:40:10;12.90;;;8.87;;
69627;SDS011;56850;51.984;5.088;2024-02-26T09:42:41;10.80;;;8.07;;
69627;SDS011;56850;51.984;5.088;2024-02-26T09:45:18;11.13;;;8.60;;
69627;SDS011;56850;51.984;5.088;2024-02-26T09:47:47;9.38;;;7.40;;
69627;SDS011;56850;51.984;5.088;2024-02-26T09:50:16;10.93;;;8.02;;
69627;SDS011;56850;51.984;5.088;2024-02-26T09:52:44;9.93;;;7.67;;
69627;SDS011;56850;51.984;5.088;2024-02-26T09:55:11;9.88;;;7.75;;
69627;SDS011;56850;51.984;5.088;2024-02-26T09:57:38;9.45;;;7.65;;
69627;SDS011;56850;51.984;5.088;2024-02-26T10:00:16;8.93;;;7.03;;
69627;SDS011;56850;51.984;5.088;2024-02-26T10:02:47;9.93;;;7.38;;
69627;SDS011;56850;51.984;5.088;2024-02-26T10:05:18;8.50;;;6.47;;
69627;SDS011;56850;51.984;5.088;2024-02-26T10:07:46;8.20;;;6.55;;
69627;SDS011;56850;51.984;5.088;2024-02-26T10:10:13;10.05;;;6.82;;
69627;SDS011;56850;51.984;5.088;2024-02-26T10:12:41;8.50;;;6.57;;
69627;SDS011;56850;51.984;5.088;2024-02-26T10:15:08;8.07;;;6.47;;
69627;SDS011;56850;51.984;5.088;2024-02-26T10:17:35;7.30;;;6.03;;
69627;SDS011;56850;51.984;5.088;2024-02-26T10:20:17;7.07;;;5.78;;
69627;SDS011;56850;51.984;5.088;2024-02-26T10:22:51;7.13;;;6.40;;
69627;SDS011;56850;51.984;5.088;2024-02-26T10:25:19;8.38;;;6.20;;
69627;SDS011;56850;51.984;5.088;2024-02-26T10:27:46;7.95;;;5.97;;
69627;SDS011;56850;51.984;5.088;2024-02-26T10:30:18;9.67;;;5.97;;
69627;SDS011;56850;51.984;5.088;2024-02-26T10:32:48;7.03;;;5.70;;
69627;SDS011;56850;51.984;5.088;2024-02-26T10:35:17;6.72;;;5.60;;
69627;SDS011;56850;51.984;5.088;2024-02-26T10:37:47;7.00;;;6.13;;
69627;SDS011;56850;51.984;5.088;2024-02-26T10:40:15;7.10;;;5.85;;
69627;SDS011;56850;51.984;5.088;2024-02-26T10:42:42;7.37;;;5.63;;
69627;SDS011;56850;51.984;5.088;2024-02-26T10:45:11;9.15;;;5.80;;
69627;SDS011;56850;51.984;5.088;2024-02-26T10:47:38;6.32;;;5.20;;
69627;SDS011;56850;51.984;5.088;2024-02-26T10:50:08;6.75;;;5.35;;
69627;SDS011;56850;51.984;5.088;2024-02-26T10:52:36;6.78;;;5.55;;
69627;SDS011;56850;51.984;5.088;2024-02-26T10:55:04;7.23;;;5.20;;
69627;SDS011;56850;51.984;5.088;2024-02-26T10:57:35;6.13;;;5.35;;
69627;SDS011;56850;51.984;5.088;2024-02-26T11:00:07;6.50;;;5.47;;
69627;SDS011;56850;51.984;5.088;2024-02-26T11:02:37;6.03;;;5.10;;
69627;SDS011;56850;51.984;5.088;2024-02-26T11:05:06;7.53;;;5.70;;
69627;SDS011;56850;51.984;5.088;2024-02-26T11:07:34;5.83;;;4.57;;
69627;SDS011;56850;51.984;5.088;2024-02-26T11:10:05;5.93;;;4.70;;
69627;SDS011;56850;51.984;5.088;2024-02-26T11:12:32;6.25;;;5.35;;
69627;SDS011;56850;51.984;5.088;2024-02-26T11:15:04;6.57;;;4.47;;
69627;SDS011;56850;51.984;5.088;2024-02-26T11:17:31;5.38;;;4.75;;
69627;SDS011;56850;51.984;5.088;2024-02-26T11:20:00;7.70;;;5.50;;
69627;SDS011;56850;51.984;5.088;2024-02-26T11:22:30;6.80;;;4.75;;
69627;SDS011;56850;51.984;5.088;2024-02-26T11:24:58;7.53;;;5.00;;
69627;SDS011;56850;51.984;5.088;2024-02-26T11:27:29;5.78;;;5.05;;
69627;SDS011;56850;51.984;5.088;2024-02-26T11:30:01;7.25;;;5.00;;
69627;SDS011;56850;51.984;5.088;2024-02-26T11:32:32;5.60;;;4.83;;
69627;SDS011;56850;51.984;5.088;2024-02-26T11:35:01;7.55;;;4.88;;
69627;SDS011;56850;51.984;5.088;2024-02-26T11:37:30;5.55;;;4.85;;
69627;SDS011;56850;51.984;5.088;2024-02-26T11:40:03;6.18;;;5.15;;
69627;SDS011;56850;51.984;5.088;2024-02-26T11:42:30;5.68;;;4.57;;
69627;SDS011;56850;51.984;5.088;2024-02-26T11:44:59;5.47;;;4.50;;
69627;SDS011;56850;51.984;5.088;2024-02-26T11:47:27;5.18;;;4.60;;
69627;SDS011;56850;51.984;5.088;2024-02-26T11:49:54;5.65;;;5.07;;
69627;SDS011;56850;51.984;5.088;2024-02-26T11:52:21;6.40;;;4.57;;
69627;SDS011;56850;51.984;5.088;2024-02-26T11:54:52;5.75;;;4.93;;
69627;SDS011;56850;51.984;5.088;2024-02-26T11:57:20;5.53;;;4.23;;
69627;SDS011;56850;51.984;5.088;2024-02-26T11:59:51;6.82;;;4.97;;
69627;SDS011;56850;51.984;5.088;2024-02-26T12:05:11;6.60;;;4.72;;
69627;SDS011;56850;51.984;5.088;2024-02-26T12:07:44;5.93;;;5.00;;
69627;SDS011;56850;51.984;5.088;2024-02-26T12:10:16;6.97;;;5.00;;
69627;SDS011;56850;51.984;5.088;2024-02-26T12:12:53;6.20;;;4.40;;
69627;SDS011;56850;51.984;5.088;2024-02-26T12:18:18;6.13;;;4.78;;
69627;SDS011;56850;51.984;5.088;2024-02-26T12:20:47;7.35;;;5.30;;
69627;SDS011;56850;51.984;5.088;2024-02-26T12:23:29;5.43;;;4.50;;
69627;SDS011;56850;51.984;5.088;2024-02-26T12:26:00;5.82;;;5.05;;
69627;SDS011;56850;51.984;5.088;2024-02-26T12:28:29;5.07;;;4.57;;
69627;SDS011;56850;51.984;5.088;2024-02-26T12:30:57;6.53;;;5.10;;
69627;SDS011;56850;51.984;5.088;2024-02-26T12:33:26;6.25;;;4.93;;
69627;SDS011;56850;51.984;5.088;2024-02-26T12:35:54;6.77;;;5.03;;
69627;SDS011;56850;51.984;5.088;2024-02-26T12:38:21;6.63;;;5.22;;
69627;SDS011;56850;51.984;5.088;2024-02-26T12:40:48;7.05;;;5.00;;
69627;SDS011;56850;51.984;5.088;2024-02-26T12:43:15;6.93;;;4.55;;
69627;SDS011;56850;51.984;5.088;2024-02-26T12:45:42;7.13;;;4.65;;
69627;SDS011;56850;51.984;5.088;2024-02-26T12:48:14;6.57;;;4.63;;
69627;SDS011;56850;51.984;5.088;2024-02-26T12:50:44;6.57;;;4.97;;
69627;SDS011;56850;51.984;5.088;2024-02-26T12:53:13;5.22;;;4.72;;
69627;SDS011;56850;51.984;5.088;2024-02-26T12:55:41;5.68;;;5.07;;
69627;SDS011;56850;51.984;5.088;2024-02-26T12:58:09;6.55;;;4.40;;
69627;SDS011;56850;51.984;5.088;2024-02-26T13:00:36;5.57;;;4.87;;
69627;SDS011;56850;51.984;5.088;2024-02-26T13:03:03;7.78;;;5.07;;
69627;SDS011;56850;51.984;5.088;2024-02-26T13:05:31;5.47;;;4.55;;
69627;SDS011;56850;51.984;5.088;2024-02-26T13:07:58;6.63;;;4.80;;
69627;SDS011;56850;51.984;5.088;2024-02-26T13:10:25;5.43;;;4.68;;
69627;SDS011;56850;51.984;5.088;2024-02-26T13:12:52;7.60;;;4.80;;
69627;SDS011;56850;51.984;5.088;2024-02-26T13:15:20;6.22;;;4.32;;
69627;SDS011;56850;51.984;5.088;2024-02-26T13:17:49;6.47;;;4.70;;
69627;SDS011;56850;51.984;5.088;2024-02-26T13:20:26;5.68;;;4.75;;
69627;SDS011;56850;51.984;5.088;2024-02-26T13:23:01;6.35;;;4.50;;
69627;SDS011;56850;51.984;5.088;2024-02-26T13:25:33;6.23;;;4.80;;
69627;SDS011;56850;51.984;5.088;2024-02-26T13:30:52;6.50;;;5.18;;
69627;SDS011;56850;51.984;5.088;2024-02-26T13:33:24;6.53;;;4.78;;
69627;SDS011;56850;51.984;5.088;2024-02-26T13:35:52;6.65;;;5.45;;
69627;SDS011;56850;51.984;5.088;2024-02-26T13:38:20;6.87;;;5.53;;
69627;SDS011;56850;51.984;5.088;2024-02-26T13:40:47;7.18;;;4.55;;
69627;SDS011;56850;51.984;5.088;2024-02-26T13:43:14;6.60;;;5.18;;
69627;SDS011;56850;51.984;5.088;2024-02-26T13:45:41;5.53;;;4.88;;
69627;SDS011;56850;51.984;5.088;2024-02-26T13:48:08;5.70;;;4.68;;
69627;SDS011;56850;51.984;5.088;2024-02-26T13:50:41;6.10;;;4.57;;
69627;SDS011;56850;51.984;5.088;2024-02-26T13:53:13;5.10;;;4.60;;
69627;SDS011;56850;51.984;5.088;2024-02-26T13:55:41;6.28;;;4.90;;
69627;SDS011;56850;51.984;5.088;2024-02-26T13:58:13;6.00;;;4.38;;
69627;SDS011;56850;51.984;5.088;2024-02-26T14:00:41;5.20;;;4.70;;
69627;SDS011;56850;51.984;5.088;2024-02-26T14:03:09;5.07;;;4.50;;
69627;SDS011;56850;51.984;5.088;2024-02-26T14:05:37;6.05;;;4.65;;
69627;SDS011;56850;51.984;5.088;2024-02-26T14:08:04;6.57;;;4.80;;
69627;SDS011;56850;51.984;5.088;2024-02-26T14:10:32;6.30;;;5.00;;
69627;SDS011;56850;51.984;5.088;2024-02-26T14:13:01;5.78;;;4.60;;
69627;SDS011;56850;51.984;5.088;2024-02-26T14:15:28;5.03;;;4.20;;
69627;SDS011;56850;51.984;5.088;2024-02-26T14:17:56;4.85;;;4.05;;
69627;SDS011;56850;51.984;5.088;2024-02-26T14:20:24;5.78;;;4.60;;
69627;SDS011;56850;51.984;5.088;2024-02-26T14:22:51;5.72;;;4.30;;
69627;SDS011;56850;51.984;5.088;2024-02-26T14:25:22;6.32;;;4.65;;
69627;SDS011;56850;51.984;5.088;2024-02-26T14:27:54;4.93;;;4.37;;
69627;SDS011;56850;51.984;5.088;2024-02-26T14:30:21;6.10;;;4.78;;
69627;SDS011;56850;51.984;5.088;2024-02-26T14:32:48;5.72;;;4.68;;
69627;SDS011;56850;51.984;5.088;2024-02-26T14:35:15;5.60;;;4.47;;
69627;SDS011;56850;51.984;5.088;2024-02-26T14:37:43;5.30;;;4.68;;
69627;SDS011;56850;51.984;5.088;2024-02-26T14:40:15;5.70;;;4.10;;
69627;SDS011;56850;51.984;5.088;2024-02-26T14:42:44;5.88;;;4.32;;
69627;SDS011;56850;51.984;5.088;2024-02-26T14:45:11;7.15;;;4.47;;
69627;SDS011;56850;51.984;5.088;2024-02-26T14:47:38;6.15;;;4.97;;
69627;SDS011;56850;51.984;5.088;2024-02-26T14:50:06;4.47;;;4.07;;
69627;SDS011;56850;51.984;5.088;2024-02-26T14:52:33;5.67;;;4.00;;
69627;SDS011;56850;51.984;5.088;2024-02-26T14:55:00;4.75;;;4.10;;
69627;SDS011;56850;51.984;5.088;2024-02-26T14:57:27;5.25;;;4.28;;
69627;SDS011;56850;51.984;5.088;2024-02-26T14:59:54;5.25;;;4.30;;